Surfer 7 (1899) — FGG7526 — position and weather

sailwx.info

Track history (hours):
 
Tides and Currents Weather Stations Pressure Air Temp Water Temp Dewpoint Dewpoint Depression Visibility Wind Speed Wind Dir Waves Ship Positions

Surfer 7 (1899)

Last reported at 2018-Feb-18 20:26 UTC. Time now 2018-Feb-18 22:25 UTC.
Position S 05°39' E 011°27'.

Length 18 m; draft 1.2 m.

MMSI: 227046740.

Date/timePositionNaut miles runAvg speedWind from/ knotsBaromVisibWave heightAir tempDewpointWater temp
2018-Feb-18 20:26S 05°39' E 011°27'1 0.7
2018-Feb-18 19:34S 05°40' E 011°26'0 0.0
2018-Feb-18 19:23S 05°40' E 011°26'612.6
2018-Feb-18 18:53S 05°35' E 011°30'917.1
2018-Feb-18 18:23S 05°30' E 011°37'6 5.1
2018-Feb-18 17:17S 05°24' E 011°39'411.5
2018-Feb-18 16:58S 05°21' E 011°38'4 3.3
2018-Feb-18 15:37S 05°25' E 011°40'420.4
2018-Feb-18 15:27S 05°27' E 011°36'612.4
2018-Feb-18 14:58S 05°29' E 011°31'1123.0
2018-Feb-18 14:30S 05°21' E 011°37'4 6.6
2018-Feb-18 13:52S 05°25' E 011°39'1 0.7
2018-Feb-18 12:09S 05°24' E 011°40'2 0.7
2018-Feb-18 09:39S 05°26' E 011°40'1 5.0
2018-Feb-18 09:30S 05°25' E 011°40'4 5.5
2018-Feb-18 08:48S 05°22' E 011°38'1 2.7
2018-Feb-18 08:29S 05°22' E 011°39'1 1.9
2018-Feb-18 07:59S 05°22' E 011°40'2 4.6
2018-Feb-18 07:28S 05°21' E 011°37'4 7.2
2018-Feb-18 06:55S 05°25' E 011°39'814.9
2018-Feb-18 06:24S 05°28' E 011°32'1 3.6
2018-Feb-18 06:00S 05°29' E 011°31'713.7
2018-Feb-18 05:30S 05°25' E 011°36'3 1.3
2018-Feb-18 03:01S 05°25' E 011°40'110.2
2018-Feb-18 02:53S 05°24' E 011°39'1 0.5
2018-Feb-18 00:41S 05°25' E 011°39'0 0.1
2018-Feb-17 21:52S 05°25' E 011°39'0 0.0
2018-Feb-17 21:29S 05°25' E 011°39'0 0.1
2018-Feb-17 20:56S 05°25' E 011°39'0 0.0
2018-Feb-17 18:24S 05°25' E 011°39'0 0.0
2018-Feb-17 18:00S 05°25' E 011°39'1 1.0
2018-Feb-17 17:29S 05°24' E 011°39'2 3.9
2018-Feb-17 16:56S 05°22' E 011°40'4 2.2
2018-Feb-17 15:16S 05°26' E 011°40'4 9.1
2018-Feb-17 14:53S 05°22' E 011°40'3 6.2
2018-Feb-17 14:27S 05°25' E 011°39'0 0.1
2018-Feb-17 13:59S 05°25' E 011°39'3 5.4
2018-Feb-17 13:29S 05°22' E 011°40'3 0.7
2018-Feb-17 09:33S 05°25' E 011°40'0 0.0
2018-Feb-17 09:26S 05°25' E 011°40'510.4
2018-Feb-17 09:00S 05°21' E 011°38'5 6.9
2018-Feb-17 08:20S 05°25' E 011°40'412.2
2018-Feb-17 08:00S 05°21' E 011°38'4 0.7
2018-Feb-17 01:54S 05°25' E 011°39'0 0.0
2018-Feb-17 01:27S 05°25' E 011°39'0 0.0
2018-Feb-17 00:52S 05°25' E 011°39'0 0.1
2018-Feb-17 00:06S 05°25' E 011°39'0 0.0
2018-Feb-17 00:00S 05°25' E 011°39'0 0.1
2018-Feb-16 22:14S 05°25' E 011°39'0 0.0
2018-Feb-16 21:59S 05°25' E 011°39'0 0.0
2018-Feb-16 21:30S 05°25' E 011°39'0 0.1
2018-Feb-16 20:59S 05°25' E 011°39'1 0.5
2018-Feb-16 18:59S 05°25' E 011°40'1 2.0
2018-Feb-16 18:29S 05°25' E 011°39'1 2.7
2018-Feb-16 18:00S 05°24' E 011°39'1 1.7
2018-Feb-16 17:29S 05°24' E 011°39'0 0.5
2018-Feb-16 17:00S 05°25' E 011°39'2 1.1
2018-Feb-16 15:29S 05°26' E 011°40'510.2
2018-Feb-16 14:59S 05°22' E 011°38'4 7.6
2018-Feb-16 14:30S 05°25' E 011°39'4 8.9
2018-Feb-16 14:00S 05°21' E 011°37'4 4.4
2018-Feb-16 13:08S 05°24' E 011°39'214.5
2018-Feb-16 12:59S 05°22' E 011°40'4 1.1
2018-Feb-16 09:22S 05°26' E 011°40'4 9.4
2018-Feb-16 08:54S 05°23' E 011°37'1 1.5
2018-Feb-16 08:27S 05°24' E 011°37'1 1.5
2018-Feb-16 07:59S 05°24' E 011°37'2 1.3
2018-Feb-16 06:33S 05°25' E 011°39'0 1.0
2018-Feb-16 06:30S 05°25' E 011°39'1 0.9
2018-Feb-16 05:17S 05°24' E 011°40'1 0.5
2018-Feb-16 03:03S 05°25' E 011°40'211.6
2018-Feb-16 02:55S 05°24' E 011°40'1 2.8
2018-Feb-16 02:29S 05°25' E 011°39'0 0.1
2018-Feb-16 01:47S 05°25' E 011°39'0 0.0
2018-Feb-16 01:29S 05°25' E 011°39'0 0.0
2018-Feb-16 00:17S 05°25' E 011°39'0 0.0
2018-Feb-15 23:56S 05°25' E 011°39'0 0.0
2018-Feb-15 22:58S 05°25' E 011°39'0 0.1
2018-Feb-15 22:27S 05°25' E 011°39'0 0.0
2018-Feb-15 22:00S 05°25' E 011°39'3 1.3
2018-Feb-15 19:54S 05°22' E 011°40'3 1.3
2018-Feb-15 17:49S 05°25' E 011°39'0 0.1
2018-Feb-15 17:23S 05°25' E 011°39'3 6.5
2018-Feb-15 16:59S 05°22' E 011°40'3 6.3
2018-Feb-15 16:29S 05°25' E 011°40'1 0.7
2018-Feb-15 15:18S 05°26' E 011°40'412.8
2018-Feb-15 15:00S 05°22' E 011°40'1 2.1
2018-Feb-15 14:28S 05°23' E 011°39'1 1.3
2018-Feb-15 13:55S 05°24' E 011°39'1 1.2
2018-Feb-15 13:28S 05°24' E 011°39'2 4.8
2018-Feb-15 13:00S 05°22' E 011°40'3 1.0
2018-Feb-15 09:28S 05°26' E 011°40'  
Track history (hours):
 
Tides and Currents Weather Stations Pressure Air Temp Water Temp Dewpoint Dewpoint Depression Visibility Wind Speed Wind Dir Waves Ship Positions

Surfer 7 (1899)

Last reported at 2018-Feb-18 20:26 UTC. Time now 2018-Feb-18 22:25 UTC.
Position S 05°39' E 011°27'.

Length 18 m; draft 1.2 m.

MMSI: 227046740.

Date/timePositionNaut miles runAvg speedWind from/ knotsBaromVisibWave heightAir tempDewpointWater temp
2018-Feb-18 20:26S 05°39' E 011°27'1 0.7
2018-Feb-18 19:34S 05°40' E 011°26'0 0.0
2018-Feb-18 19:23S 05°40' E 011°26'612.6
2018-Feb-18 18:53S 05°35' E 011°30'917.1
2018-Feb-18 18:23S 05°30' E 011°37'6 5.1
2018-Feb-18 17:17S 05°24' E 011°39'411.5
2018-Feb-18 16:58S 05°21' E 011°38'4 3.3
2018-Feb-18 15:37S 05°25' E 011°40'420.4
2018-Feb-18 15:27S 05°27' E 011°36'612.4
2018-Feb-18 14:58S 05°29' E 011°31'1123.0
2018-Feb-18 14:30S 05°21' E 011°37'4 6.6
2018-Feb-18 13:52S 05°25' E 011°39'1 0.7
2018-Feb-18 12:09S 05°24' E 011°40'2 0.7
2018-Feb-18 09:39S 05°26' E 011°40'1 5.0
2018-Feb-18 09:30S 05°25' E 011°40'4 5.5
2018-Feb-18 08:48S 05°22' E 011°38'1 2.7
2018-Feb-18 08:29S 05°22' E 011°39'1 1.9
2018-Feb-18 07:59S 05°22' E 011°40'2 4.6
2018-Feb-18 07:28S 05°21' E 011°37'4 7.2
2018-Feb-18 06:55S 05°25' E 011°39'814.9
2018-Feb-18 06:24S 05°28' E 011°32'1 3.6
2018-Feb-18 06:00S 05°29' E 011°31'713.7
2018-Feb-18 05:30S 05°25' E 011°36'3 1.3
2018-Feb-18 03:01S 05°25' E 011°40'110.2
2018-Feb-18 02:53S 05°24' E 011°39'1 0.5
2018-Feb-18 00:41S 05°25' E 011°39'0 0.1
2018-Feb-17 21:52S 05°25' E 011°39'0 0.0
2018-Feb-17 21:29S 05°25' E 011°39'0 0.1
2018-Feb-17 20:56S 05°25' E 011°39'0 0.0
2018-Feb-17 18:24S 05°25' E 011°39'0 0.0
2018-Feb-17 18:00S 05°25' E 011°39'1 1.0
2018-Feb-17 17:29S 05°24' E 011°39'2 3.9
2018-Feb-17 16:56S 05°22' E 011°40'4 2.2
2018-Feb-17 15:16S 05°26' E 011°40'4 9.1
2018-Feb-17 14:53S 05°22' E 011°40'3 6.2
2018-Feb-17 14:27S 05°25' E 011°39'0 0.1
2018-Feb-17 13:59S 05°25' E 011°39'3 5.4
2018-Feb-17 13:29S 05°22' E 011°40'3 0.7
2018-Feb-17 09:33S 05°25' E 011°40'0 0.0
2018-Feb-17 09:26S 05°25' E 011°40'510.4
2018-Feb-17 09:00S 05°21' E 011°38'5 6.9
2018-Feb-17 08:20S 05°25' E 011°40'412.2
2018-Feb-17 08:00S 05°21' E 011°38'4 0.7
2018-Feb-17 01:54S 05°25' E 011°39'0 0.0
2018-Feb-17 01:27S 05°25' E 011°39'0 0.0
2018-Feb-17 00:52S 05°25' E 011°39'0 0.1
2018-Feb-17 00:06S 05°25' E 011°39'0 0.0
2018-Feb-17 00:00S 05°25' E 011°39'0 0.1
2018-Feb-16 22:14S 05°25' E 011°39'0 0.0
2018-Feb-16 21:59S 05°25' E 011°39'0 0.0
2018-Feb-16 21:30S 05°25' E 011°39'0 0.1
2018-Feb-16 20:59S 05°25' E 011°39'1 0.5
2018-Feb-16 18:59S 05°25' E 011°40'1 2.0
2018-Feb-16 18:29S 05°25' E 011°39'1 2.7
2018-Feb-16 18:00S 05°24' E 011°39'1 1.7
2018-Feb-16 17:29S 05°24' E 011°39'0 0.5
2018-Feb-16 17:00S 05°25' E 011°39'2 1.1
2018-Feb-16 15:29S 05°26' E 011°40'510.2
2018-Feb-16 14:59S 05°22' E 011°38'4 7.6
2018-Feb-16 14:30S 05°25' E 011°39'4 8.9
2018-Feb-16 14:00S 05°21' E 011°37'4 4.4
2018-Feb-16 13:08S 05°24' E 011°39'214.5
2018-Feb-16 12:59S 05°22' E 011°40'4 1.1
2018-Feb-16 09:22S 05°26' E 011°40'4 9.4
2018-Feb-16 08:54S 05°23' E 011°37'1 1.5
2018-Feb-16 08:27S 05°24' E 011°37'1 1.5
2018-Feb-16 07:59S 05°24' E 011°37'2 1.3
2018-Feb-16 06:33S 05°25' E 011°39'0 1.0
2018-Feb-16 06:30S 05°25' E 011°39'1 0.9
2018-Feb-16 05:17S 05°24' E 011°40'1 0.5
2018-Feb-16 03:03S 05°25' E 011°40'211.6
2018-Feb-16 02:55S 05°24' E 011°40'1 2.8
2018-Feb-16 02:29S 05°25' E 011°39'0 0.1
2018-Feb-16 01:47S 05°25' E 011°39'0 0.0
2018-Feb-16 01:29S 05°25' E 011°39'0 0.0
2018-Feb-16 00:17S 05°25' E 011°39'0 0.0
2018-Feb-15 23:56S 05°25' E 011°39'0 0.0
2018-Feb-15 22:58S 05°25' E 011°39'0 0.1
2018-Feb-15 22:27S 05°25' E 011°39'0 0.0
2018-Feb-15 22:00S 05°25' E 011°39'3 1.3
2018-Feb-15 19:54S 05°22' E 011°40'3 1.3
2018-Feb-15 17:49S 05°25' E 011°39'0 0.1
2018-Feb-15 17:23S 05°25' E 011°39'3 6.5
2018-Feb-15 16:59S 05°22' E 011°40'3 6.3
2018-Feb-15 16:29S 05°25' E 011°40'1 0.7
2018-Feb-15 15:18S 05°26' E 011°40'412.8
2018-Feb-15 15:00S 05°22' E 011°40'1 2.1
2018-Feb-15 14:28S 05°23' E 011°39'1 1.3
2018-Feb-15 13:55S 05°24' E 011°39'1 1.2
2018-Feb-15 13:28S 05°24' E 011°39'2 4.8
2018-Feb-15 13:00S 05°22' E 011°40'3 1.0
2018-Feb-15 09:28S 05°26' E 011°40'  

Dump ship's entire track history